createdAt,value
2023-05-05T00:00:22.313Z,2.80
2023-05-05T00:01:22.300Z,2.90
2023-05-05T00:02:22.293Z,2.80
2023-05-05T00:03:22.369Z,3.20
2023-05-05T00:04:22.401Z,2.80
2023-05-05T00:05:22.267Z,2.80
2023-05-05T00:06:22.226Z,2.80
2023-05-05T00:07:22.235Z,3.10
2023-05-05T00:08:22.199Z,3.00
2023-05-05T00:09:22.235Z,3.20
2023-05-05T00:10:22.206Z,3.00
2023-05-05T00:11:22.201Z,2.70
2023-05-05T00:12:22.167Z,3.00
2023-05-05T00:13:22.182Z,3.20
2023-05-05T00:14:22.138Z,3.00
2023-05-05T00:15:22.176Z,3.40
2023-05-05T00:16:22.162Z,3.50
2023-05-05T00:17:22.135Z,3.60
2023-05-05T00:18:22.100Z,3.30
2023-05-05T00:19:22.105Z,3.70
2023-05-05T00:20:22.100Z,3.00
2023-05-05T00:21:22.079Z,3.70
2023-05-05T00:22:22.050Z,3.50
2023-05-05T00:23:22.071Z,3.40
2023-05-05T00:24:22.037Z,3.00
2023-05-05T00:25:22.054Z,3.40
2023-05-05T00:26:22.003Z,4.00
2023-05-05T00:27:22.024Z,3.80
2023-05-05T00:28:22.000Z,4.00
2023-05-05T00:29:22.001Z,3.90
2023-05-05T00:30:21.976Z,4.10
2023-05-05T00:31:21.993Z,3.60
2023-05-05T00:32:22.002Z,3.80
2023-05-05T00:33:21.964Z,3.30
2023-05-05T00:34:21.934Z,3.30
2023-05-05T00:35:21.971Z,3.50
2023-05-05T00:36:21.910Z,3.90
2023-05-05T00:37:21.928Z,3.90
2023-05-05T00:38:21.888Z,3.70
2023-05-05T00:39:21.900Z,4.00
2023-05-05T00:40:21.879Z,3.70
2023-05-05T00:41:21.877Z,4.20
2023-05-05T00:42:21.844Z,3.60
2023-05-05T00:43:21.849Z,4.00
2023-05-05T00:44:21.814Z,4.20
2023-05-05T00:45:21.856Z,4.00
2023-05-05T00:46:21.827Z,4.10
2023-05-05T00:47:21.803Z,3.60
2023-05-05T00:48:21.790Z,3.70
2023-05-05T00:49:21.835Z,3.60
2023-05-05T00:50:21.800Z,4.20
2023-05-05T00:51:21.789Z,3.90
2023-05-05T00:52:21.732Z,4.00
2023-05-05T00:53:21.762Z,4.00
2023-05-05T00:54:21.728Z,4.10
2023-05-05T00:55:21.761Z,4.00
2023-05-05T00:56:21.722Z,3.90
2023-05-05T00:57:21.710Z,4.20
2023-05-05T00:58:21.680Z,3.80
2023-05-05T00:59:21.688Z,3.90
2023-05-05T01:00:21.668Z,4.00
2023-05-05T01:01:21.707Z,4.00
2023-05-05T01:02:21.622Z,3.40
2023-05-05T01:03:21.686Z,4.50
2023-05-05T01:04:21.606Z,3.90
2023-05-05T01:05:21.687Z,4.30
2023-05-05T01:06:21.596Z,4.00
2023-05-05T01:07:21.598Z,4.20
2023-05-05T01:08:21.574Z,4.00
2023-05-05T01:09:21.573Z,4.60
2023-05-05T01:10:21.575Z,3.90
2023-05-05T01:11:21.568Z,4.20
2023-05-05T01:12:21.515Z,4.00
2023-05-05T01:13:21.533Z,4.40
2023-05-05T01:14:21.501Z,4.10
2023-05-05T01:15:21.516Z,3.80
2023-05-05T01:16:21.565Z,3.90
2023-05-05T01:17:21.492Z,3.80
2023-05-05T01:18:21.472Z,4.10
2023-05-05T01:19:21.481Z,4.00
2023-05-05T01:20:21.434Z,4.00
2023-05-05T01:21:21.506Z,4.10
2023-05-05T01:22:21.408Z,3.70
2023-05-05T01:23:21.420Z,4.60
2023-05-05T01:24:21.407Z,4.20
2023-05-05T01:25:21.415Z,3.80
2023-05-05T01:26:21.360Z,4.00
2023-05-05T01:27:21.406Z,4.10
2023-05-05T01:28:21.345Z,4.20
2023-05-05T01:29:21.355Z,3.60
2023-05-05T01:30:21.328Z,4.60
2023-05-05T01:31:21.360Z,3.90
2023-05-05T01:32:21.311Z,4.10
2023-05-05T01:33:21.338Z,4.00
2023-05-05T01:34:21.276Z,4.00
2023-05-05T01:35:21.294Z,4.00
2023-05-05T01:36:21.261Z,4.30
2023-05-05T01:37:21.265Z,4.00
2023-05-05T01:38:21.250Z,3.90
2023-05-05T01:39:21.252Z,3.90
2023-05-05T01:40:21.223Z,3.90
2023-05-05T01:41:21.232Z,4.00
2023-05-05T01:42:21.189Z,4.00
2023-05-05T01:43:21.251Z,3.80
2023-05-05T01:44:21.159Z,3.70
2023-05-05T01:45:21.184Z,3.70
2023-05-05T01:46:21.171Z,3.70
2023-05-05T01:47:21.169Z,3.90
2023-05-05T01:48:21.165Z,3.60
2023-05-05T01:49:21.133Z,3.90
2023-05-05T01:50:21.110Z,4.40
2023-05-05T01:51:21.114Z,3.90
2023-05-05T01:52:21.074Z,3.80
2023-05-05T01:53:21.103Z,3.90
2023-05-05T01:54:21.077Z,3.50
2023-05-05T01:55:21.058Z,3.50
2023-05-05T01:56:21.070Z,4.20
2023-05-05T01:57:21.024Z,3.70
2023-05-05T01:58:21.045Z,3.50
2023-05-05T01:59:21.045Z,3.70
2023-05-05T02:00:21.020Z,3.20
2023-05-05T02:01:21.041Z,3.90
2023-05-05T02:02:21.045Z,3.70
2023-05-05T02:03:21.137Z,3.20
2023-05-05T02:04:21.003Z,3.70
2023-05-05T02:05:20.942Z,3.70
2023-05-05T02:06:20.953Z,3.70
2023-05-05T02:07:20.917Z,4.20
2023-05-05T02:08:20.936Z,3.90
2023-05-05T02:09:20.918Z,3.90
2023-05-05T02:10:20.911Z,3.60
2023-05-05T02:11:20.876Z,3.40
2023-05-05T02:12:20.887Z,3.70
2023-05-05T02:13:20.964Z,3.50
2023-05-05T02:14:20.895Z,3.50
2023-05-05T02:15:20.836Z,4.30
2023-05-05T02:16:20.876Z,4.20
2023-05-05T02:17:20.810Z,3.90
2023-05-05T02:18:20.831Z,4.20
2023-05-05T02:19:20.802Z,4.20
2023-05-05T02:20:20.803Z,4.40
2023-05-05T02:21:20.775Z,4.20
2023-05-05T02:22:20.814Z,4.30
2023-05-05T02:23:20.766Z,4.40
2023-05-05T02:24:20.780Z,4.40
2023-05-05T02:25:20.720Z,4.00
2023-05-05T02:26:20.744Z,4.20
2023-05-05T02:27:20.703Z,4.10
2023-05-05T02:28:20.719Z,4.00
2023-05-05T02:29:20.712Z,3.70
2023-05-05T02:30:20.712Z,3.70
2023-05-05T02:31:20.735Z,3.70
2023-05-05T02:32:20.735Z,3.30
2023-05-05T02:33:20.652Z,3.80
2023-05-05T02:34:20.670Z,4.00
2023-05-05T02:35:20.616Z,3.60
2023-05-05T02:36:20.638Z,3.40
2023-05-05T02:37:20.598Z,3.40
2023-05-05T02:38:20.612Z,3.80
2023-05-05T02:39:20.608Z,3.50
2023-05-05T02:40:20.608Z,3.40
2023-05-05T02:41:20.579Z,3.80
2023-05-05T02:42:20.569Z,4.00
2023-05-05T02:43:20.553Z,3.30
2023-05-05T02:44:20.573Z,3.40
2023-05-05T02:45:20.511Z,3.60
2023-05-05T02:46:20.554Z,4.10
2023-05-05T02:47:20.524Z,3.50
2023-05-05T02:48:20.526Z,3.80
2023-05-05T02:49:20.480Z,3.50
2023-05-05T02:50:20.497Z,3.60
2023-05-05T02:51:20.452Z,3.60
2023-05-05T02:52:20.468Z,3.30
2023-05-05T02:53:20.429Z,3.60
2023-05-05T02:54:20.463Z,3.40
2023-05-05T02:55:20.409Z,3.60
2023-05-05T02:56:20.431Z,3.50
2023-05-05T02:57:20.397Z,3.50
2023-05-05T02:58:20.401Z,3.60
2023-05-05T02:59:20.398Z,3.70
2023-05-05T03:00:20.387Z,3.50
2023-05-05T03:01:20.401Z,3.60
2023-05-05T03:02:20.405Z,3.40
2023-05-05T03:03:20.398Z,3.20
2023-05-05T03:04:20.350Z,3.40
2023-05-05T03:05:20.315Z,3.60
2023-05-05T03:06:20.312Z,3.50
2023-05-05T03:07:20.282Z,3.70
2023-05-05T03:08:20.293Z,3.50
2023-05-05T03:09:20.252Z,3.60
2023-05-05T03:10:20.298Z,3.50
2023-05-05T03:11:20.244Z,3.60
2023-05-05T03:12:20.246Z,3.70
2023-05-05T03:13:20.209Z,3.40
2023-05-05T03:14:20.230Z,3.60
2023-05-05T03:15:20.207Z,3.20
2023-05-05T03:16:20.245Z,3.20
2023-05-05T03:17:20.230Z,3.40
2023-05-05T03:18:20.188Z,3.70
2023-05-05T03:19:20.180Z,3.60
2023-05-05T03:20:20.184Z,3.10
2023-05-05T03:21:20.132Z,3.30
2023-05-05T03:22:20.151Z,3.40
2023-05-05T03:23:20.101Z,3.60
2023-05-05T03:24:20.107Z,3.70
2023-05-05T03:25:20.101Z,3.50
2023-05-05T03:26:20.108Z,3.60
2023-05-05T03:27:20.076Z,3.80
2023-05-05T03:28:20.078Z,3.60
2023-05-05T03:29:20.050Z,3.70
2023-05-05T03:30:20.076Z,3.20
2023-05-05T03:31:20.096Z,3.50
2023-05-05T03:32:20.037Z,3.70
2023-05-05T03:33:19.995Z,3.70
2023-05-05T03:34:20.006Z,3.60
2023-05-05T03:35:20.017Z,3.30
2023-05-05T03:36:19.992Z,3.60
2023-05-05T03:37:19.957Z,3.70
2023-05-05T03:38:19.989Z,3.60
2023-05-05T03:39:19.981Z,3.70
2023-05-05T03:40:21.042Z,3.60
2023-05-05T03:41:19.930Z,3.70
2023-05-05T03:42:19.915Z,3.60
2023-05-05T03:43:19.914Z,3.50
2023-05-05T03:44:19.885Z,3.80
2023-05-05T03:45:19.916Z,3.90
2023-05-05T03:46:19.901Z,3.70
2023-05-05T03:47:19.882Z,3.70
2023-05-05T03:48:19.854Z,3.40
2023-05-05T03:49:19.854Z,3.70
2023-05-05T03:50:19.837Z,3.60
2023-05-05T03:51:19.859Z,3.70
2023-05-05T03:52:19.805Z,3.70
2023-05-05T03:53:19.823Z,3.60
2023-05-05T03:54:19.780Z,3.70
2023-05-05T03:55:19.797Z,3.80
2023-05-05T03:56:19.760Z,3.50
2023-05-05T03:57:19.831Z,3.50
2023-05-05T03:58:19.732Z,3.60
2023-05-05T03:59:19.833Z,3.60
2023-05-05T04:00:19.718Z,3.50
2023-05-05T04:01:19.729Z,3.50
2023-05-05T04:02:19.747Z,3.70
2023-05-05T04:03:19.859Z,3.80
2023-05-05T04:04:19.717Z,3.30
2023-05-05T04:05:19.692Z,3.60
2023-05-05T04:06:19.658Z,3.50
2023-05-05T04:07:19.667Z,3.60
2023-05-05T04:08:19.634Z,3.50
2023-05-05T04:09:19.663Z,3.50
2023-05-05T04:10:19.607Z,3.30
2023-05-05T04:11:19.646Z,3.20
2023-05-05T04:12:19.590Z,3.80
2023-05-05T04:13:19.616Z,3.70
2023-05-05T04:14:19.566Z,3.90
2023-05-05T04:15:19.658Z,4.20
2023-05-05T04:16:19.622Z,3.80
2023-05-05T04:17:19.567Z,3.60
2023-05-05T04:18:19.527Z,3.70
2023-05-05T04:19:19.531Z,3.60
2023-05-05T04:20:19.533Z,3.80
2023-05-05T04:21:19.529Z,3.70
2023-05-05T04:22:19.481Z,4.10
2023-05-05T04:23:19.497Z,3.70
2023-05-05T04:24:19.465Z,3.70
2023-05-05T04:25:19.477Z,3.90
2023-05-05T04:26:19.436Z,3.70
2023-05-05T04:27:19.465Z,4.20
2023-05-05T04:28:21.068Z,4.00
2023-05-05T04:29:19.449Z,4.10
2023-05-05T04:30:19.404Z,3.80
2023-05-05T04:31:19.430Z,3.90
2023-05-05T04:32:19.473Z,4.20
2023-05-05T04:33:19.401Z,4.40
2023-05-05T04:34:19.347Z,3.60
2023-05-05T04:35:19.362Z,4.00
2023-05-05T04:36:19.336Z,4.30
2023-05-05T04:37:19.349Z,4.10
2023-05-05T04:38:19.386Z,4.20
2023-05-05T04:39:19.368Z,4.00
2023-05-05T04:40:19.313Z,3.80
2023-05-05T04:41:19.296Z,3.80
2023-05-05T04:42:19.269Z,3.60
2023-05-05T04:43:19.288Z,4.10
2023-05-05T04:44:19.265Z,3.80
2023-05-05T04:45:19.283Z,3.90
2023-05-05T04:46:19.289Z,4.30
2023-05-05T04:47:19.248Z,4.00
2023-05-05T04:48:19.201Z,3.90
2023-05-05T04:49:19.239Z,4.10
2023-05-05T04:50:19.177Z,4.40
2023-05-05T04:51:19.216Z,4.20
2023-05-05T04:52:19.162Z,3.90
2023-05-05T04:53:19.175Z,4.10
2023-05-05T04:54:19.140Z,4.20
2023-05-05T04:55:19.148Z,4.00
2023-05-05T04:56:19.126Z,4.30
2023-05-05T04:57:19.149Z,3.90
2023-05-05T04:58:19.117Z,3.80
2023-05-05T04:59:19.112Z,4.60
2023-05-05T05:00:19.102Z,3.90
2023-05-05T05:01:19.097Z,4.10
2023-05-05T05:02:19.132Z,4.30
2023-05-05T05:03:19.128Z,4.00
2023-05-05T05:04:19.058Z,3.80
2023-05-05T05:05:19.039Z,3.80
2023-05-05T05:06:19.001Z,3.80
2023-05-05T05:07:19.026Z,3.70
2023-05-05T05:08:18.990Z,3.90
2023-05-05T05:09:19.017Z,4.30
2023-05-05T05:10:18.987Z,3.60
2023-05-05T05:11:18.983Z,3.90
2023-05-05T05:12:18.940Z,3.70
2023-05-05T05:13:18.989Z,3.60
2023-05-05T05:14:18.931Z,3.50
2023-05-05T05:15:18.951Z,3.70
2023-05-05T05:16:18.944Z,4.10
2023-05-05T05:17:18.910Z,3.80
2023-05-05T05:18:18.874Z,4.20
2023-05-05T05:19:18.890Z,3.90
2023-05-05T05:20:18.863Z,4.10
2023-05-05T05:21:18.897Z,4.10
2023-05-05T05:22:18.849Z,3.80
2023-05-05T05:23:18.842Z,3.80
2023-05-05T05:24:18.820Z,3.80
2023-05-05T05:25:18.824Z,3.80
2023-05-05T05:26:18.786Z,3.50
2023-05-05T05:27:18.831Z,3.80
2023-05-05T05:28:18.774Z,3.70
2023-05-05T05:29:18.783Z,3.90
2023-05-05T05:30:18.753Z,3.70
2023-05-05T05:31:18.762Z,3.80
2023-05-05T05:32:18.854Z,3.80
2023-05-05T05:33:18.769Z,3.60
2023-05-05T05:34:18.703Z,3.90
2023-05-05T05:35:18.720Z,3.60
2023-05-05T05:36:18.680Z,3.60
2023-05-05T05:37:18.703Z,3.50
2023-05-05T05:38:18.694Z,3.70
2023-05-05T05:39:18.673Z,3.70
2023-05-05T05:40:18.638Z,3.90
2023-05-05T05:41:18.651Z,3.80
2023-05-05T05:42:18.618Z,3.80
2023-05-05T05:43:18.671Z,3.70
2023-05-05T05:44:18.596Z,4.00
2023-05-05T05:45:18.614Z,3.90
2023-05-05T05:46:18.598Z,4.20
2023-05-05T05:47:18.610Z,3.90
2023-05-05T05:48:18.580Z,3.70
2023-05-05T05:49:18.575Z,4.00
2023-05-05T05:50:18.532Z,3.70
2023-05-05T05:51:18.546Z,3.70
2023-05-05T05:52:18.527Z,3.80
2023-05-05T05:53:18.549Z,3.80
2023-05-05T05:54:18.492Z,3.50
2023-05-05T05:55:18.505Z,3.40
2023-05-05T05:56:18.471Z,4.00
2023-05-05T05:57:18.477Z,4.20
2023-05-05T05:58:18.476Z,3.80
2023-05-05T05:59:18.477Z,3.70
2023-05-05T06:00:18.442Z,3.40
2023-05-05T06:01:18.449Z,3.70
2023-05-05T06:02:18.452Z,3.80
2023-05-05T06:03:18.674Z,3.80
2023-05-05T06:04:18.423Z,3.90
2023-05-05T06:05:18.391Z,3.50
2023-05-05T06:06:18.380Z,3.50
2023-05-05T06:07:18.394Z,3.60
2023-05-05T06:08:18.382Z,3.90
2023-05-05T06:09:18.327Z,3.70
2023-05-05T06:10:26.623Z,3.90
2023-05-05T06:11:18.321Z,3.60
2023-05-05T06:12:18.320Z,4.10
2023-05-05T06:13:18.337Z,3.60
2023-05-05T06:14:20.033Z,3.70
2023-05-05T06:15:18.292Z,3.60
2023-05-05T06:16:18.319Z,3.60
2023-05-05T06:17:18.253Z,3.50
2023-05-05T06:18:18.295Z,3.50
2023-05-05T06:19:18.243Z,3.50
2023-05-05T06:20:18.248Z,3.60
2023-05-05T06:21:18.202Z,3.60
2023-05-05T06:22:18.261Z,3.50
2023-05-05T06:23:18.191Z,3.70
2023-05-05T06:24:18.209Z,3.60
2023-05-05T06:25:18.189Z,3.60
2023-05-05T06:26:18.176Z,3.60
2023-05-05T06:27:18.157Z,3.70
2023-05-05T06:28:18.162Z,3.60
2023-05-05T06:29:18.146Z,3.60
2023-05-05T06:30:18.147Z,3.40
2023-05-05T06:31:18.210Z,3.60
2023-05-05T06:32:18.115Z,3.90
2023-05-05T06:33:18.099Z,3.70
2023-05-05T06:34:18.110Z,3.50
2023-05-05T06:35:18.054Z,3.50
2023-05-05T06:36:18.121Z,3.60
2023-05-05T06:37:18.044Z,3.60
2023-05-05T06:38:18.086Z,4.00
2023-05-05T06:39:18.048Z,3.70
2023-05-05T06:40:18.034Z,3.60
2023-05-05T06:41:18.001Z,3.70
2023-05-05T06:42:18.030Z,3.60
2023-05-05T06:43:17.993Z,3.40
2023-05-05T06:44:18.016Z,3.60
2023-05-05T06:45:17.958Z,3.40
2023-05-05T06:46:18.002Z,3.80
2023-05-05T06:47:17.956Z,4.30
2023-05-05T06:48:17.958Z,3.50
2023-05-05T06:49:17.949Z,3.70
2023-05-05T06:50:17.951Z,3.70
2023-05-05T06:51:17.910Z,3.60
2023-05-05T06:52:17.926Z,3.50
2023-05-05T06:53:17.877Z,3.50
2023-05-05T06:54:17.922Z,3.50
2023-05-05T06:55:17.872Z,3.60
2023-05-05T06:56:17.886Z,3.40
2023-05-05T06:57:17.860Z,3.50
2023-05-05T06:58:17.854Z,3.60
2023-05-05T06:59:17.850Z,3.60
2023-05-05T07:00:17.924Z,3.40
2023-05-05T07:01:17.857Z,3.50
2023-05-05T07:02:17.815Z,3.90
2023-05-05T07:03:17.896Z,3.60
2023-05-05T07:04:17.845Z,3.20
2023-05-05T07:05:17.756Z,3.40
2023-05-05T07:06:17.792Z,3.40
2023-05-05T07:07:17.740Z,3.70
2023-05-05T07:08:17.754Z,3.50
2023-05-05T07:09:17.760Z,3.60
2023-05-05T07:10:17.753Z,3.60
2023-05-05T07:11:19.020Z,3.80
2023-05-05T07:12:17.703Z,3.60
2023-05-05T07:13:17.791Z,3.60
2023-05-05T07:14:17.705Z,3.50
2023-05-05T07:15:28.190Z,3.50
2023-05-05T07:16:17.687Z,3.40
2023-05-05T07:17:17.676Z,3.60
2023-05-05T07:18:17.643Z,3.60
2023-05-05T07:19:17.684Z,3.20
2023-05-05T07:20:17.622Z,3.30
2023-05-05T07:21:17.589Z,3.40
2023-05-05T07:22:17.597Z,3.50
2023-05-05T07:23:17.564Z,3.50
2023-05-05T07:24:17.594Z,3.30
2023-05-05T07:25:17.557Z,3.40
2023-05-05T07:26:17.559Z,3.30
2023-05-05T07:27:17.525Z,3.20
2023-05-05T07:28:17.537Z,3.20
2023-05-05T07:29:17.522Z,3.10
2023-05-05T07:30:18.883Z,3.30
2023-05-05T07:31:17.478Z,3.00
2023-05-05T07:32:17.609Z,3.00
2023-05-05T07:33:17.458Z,3.00
2023-05-05T07:34:17.492Z,2.90
2023-05-05T07:35:17.454Z,3.10
2023-05-05T07:36:17.442Z,3.30
2023-05-05T07:37:17.421Z,3.20
2023-05-05T07:38:17.414Z,2.90
2023-05-05T07:39:17.424Z,3.00
2023-05-05T07:40:17.394Z,3.00
2023-05-05T07:41:17.389Z,3.10
2023-05-05T07:42:17.375Z,3.30
2023-05-05T07:43:17.351Z,3.10
2023-05-05T07:44:17.359Z,2.80
2023-05-05T07:45:17.323Z,3.00
2023-05-05T07:46:17.365Z,3.10
2023-05-05T07:47:17.288Z,3.00
2023-05-05T07:48:17.301Z,2.80
2023-05-05T07:49:17.281Z,3.00
2023-05-05T07:50:17.281Z,3.10
2023-05-05T07:51:17.250Z,3.10
2023-05-05T07:52:17.253Z,2.70
2023-05-05T07:53:17.233Z,3.00
2023-05-05T07:54:17.248Z,2.90
2023-05-05T07:55:17.204Z,2.90
2023-05-05T07:56:17.216Z,2.90
2023-05-05T07:57:17.185Z,3.10
2023-05-05T07:58:17.199Z,2.80
2023-05-05T07:59:17.170Z,3.00
2023-05-05T08:00:17.173Z,2.80
2023-05-05T08:01:17.130Z,3.20
2023-05-05T08:02:17.190Z,3.30
2023-05-05T08:03:17.202Z,2.80
2023-05-05T08:04:17.217Z,2.80
2023-05-05T08:05:17.086Z,3.10
2023-05-05T08:06:17.101Z,3.10
2023-05-05T08:07:17.064Z,2.90
2023-05-05T08:08:17.102Z,2.70
2023-05-05T08:09:17.070Z,3.20
2023-05-05T08:10:17.050Z,2.70
2023-05-05T08:11:17.028Z,2.90
2023-05-05T08:12:17.023Z,2.70
2023-05-05T08:13:17.082Z,3.10
2023-05-05T08:14:17.030Z,3.10
2023-05-05T08:15:16.967Z,2.80
2023-05-05T08:16:17.031Z,3.00
2023-05-05T08:17:16.973Z,2.80
2023-05-05T08:18:16.975Z,2.90
2023-05-05T08:19:27.667Z,2.80
2023-05-05T08:20:16.982Z,2.90
2023-05-05T08:21:16.905Z,2.80
2023-05-05T08:22:16.925Z,2.90
2023-05-05T08:23:16.892Z,3.30
2023-05-05T08:24:16.932Z,3.00
2023-05-05T08:25:16.863Z,3.10
2023-05-05T08:26:16.883Z,2.70
2023-05-05T08:27:16.839Z,2.90
2023-05-05T08:28:16.857Z,2.80
2023-05-05T08:29:16.858Z,3.00
2023-05-05T08:30:16.850Z,2.70
2023-05-05T08:31:16.828Z,2.80
2023-05-05T08:32:16.850Z,2.80
2023-05-05T08:33:16.889Z,2.80
2023-05-05T08:34:16.813Z,3.10
2023-05-05T08:35:16.820Z,2.90
2023-05-05T08:36:16.770Z,2.70
2023-05-05T08:37:16.745Z,2.90
2023-05-05T08:38:16.753Z,2.70
2023-05-05T08:39:16.729Z,2.70
2023-05-05T08:40:16.743Z,2.90
2023-05-05T08:41:16.679Z,3.00
2023-05-05T08:42:25.795Z,3.00
2023-05-05T08:43:16.668Z,3.00
2023-05-05T08:44:16.701Z,2.90
2023-05-05T08:45:16.659Z,3.00
2023-05-05T08:46:16.692Z,3.00
2023-05-05T08:47:16.628Z,3.00
2023-05-05T08:48:16.643Z,2.80
2023-05-05T08:49:16.624Z,2.90
2023-05-05T08:50:16.619Z,2.70
2023-05-05T08:51:16.580Z,2.90
2023-05-05T08:52:16.606Z,2.80
2023-05-05T08:53:16.571Z,2.60
2023-05-05T08:54:16.584Z,3.00
2023-05-05T08:55:16.550Z,2.70
2023-05-05T08:56:16.554Z,2.50
2023-05-05T08:57:16.520Z,2.90
2023-05-05T08:58:16.529Z,2.80
2023-05-05T08:59:16.493Z,3.00
2023-05-05T09:00:16.537Z,2.70
2023-05-05T09:01:16.486Z,2.70
2023-05-05T09:02:16.533Z,2.90
2023-05-05T09:03:16.584Z,2.80
2023-05-05T09:04:16.471Z,2.60
2023-05-05T09:05:16.458Z,3.00
2023-05-05T09:06:16.455Z,2.60
2023-05-05T09:07:16.422Z,2.80
2023-05-05T09:08:16.429Z,2.60
2023-05-05T09:09:16.392Z,2.80
2023-05-05T09:10:16.427Z,3.20
2023-05-05T09:11:16.371Z,2.90
2023-05-05T09:12:16.390Z,3.00
2023-05-05T09:13:16.391Z,2.50
2023-05-05T09:14:16.358Z,2.80
2023-05-05T09:15:16.384Z,2.60
2023-05-05T09:16:16.382Z,3.00
2023-05-05T09:17:16.310Z,2.70
2023-05-05T09:18:16.334Z,2.70
2023-05-05T09:19:16.292Z,2.70
2023-05-05T09:20:16.324Z,2.90
2023-05-05T09:21:16.295Z,2.60
2023-05-05T09:22:16.298Z,2.60
2023-05-05T09:23:16.266Z,2.60
2023-05-05T09:24:16.278Z,2.20
2023-05-05T09:25:16.310Z,2.40
2023-05-05T09:26:16.249Z,2.30
2023-05-05T09:27:16.209Z,2.50
2023-05-05T09:28:16.244Z,2.60
2023-05-05T09:29:16.203Z,2.10
2023-05-05T09:30:16.219Z,2.20
2023-05-05T09:31:16.437Z,2.30
2023-05-05T09:32:16.189Z,2.40
2023-05-05T09:33:16.186Z,2.00
2023-05-05T09:34:16.405Z,2.40
2023-05-05T09:35:16.151Z,2.00
2023-05-05T09:36:16.147Z,1.70
2023-05-05T09:37:16.130Z,1.90
2023-05-05T09:38:16.132Z,1.60
2023-05-05T09:39:16.094Z,1.30
2023-05-05T09:40:16.160Z,1.40
2023-05-05T09:41:16.075Z,1.30
2023-05-05T09:42:16.094Z,1.40
2023-05-05T09:43:16.053Z,1.50
2023-05-05T09:44:16.084Z,1.20
2023-05-05T09:45:22.562Z,1.50
2023-05-05T09:46:16.068Z,1.30
2023-05-05T09:47:28.528Z,1.30
2023-05-05T09:48:16.050Z,1.40
2023-05-05T09:49:16.012Z,1.40
2023-05-05T09:50:16.265Z,1.30
2023-05-05T09:51:15.968Z,1.50
2023-05-05T09:52:15.993Z,1.50
2023-05-05T09:53:15.935Z,1.50
2023-05-05T09:54:15.948Z,1.50
2023-05-05T09:55:15.947Z,1.70
2023-05-05T09:56:15.921Z,1.50
2023-05-05T09:57:15.901Z,1.20
2023-05-05T09:58:15.945Z,1.00
2023-05-05T09:59:15.876Z,1.30
2023-05-05T10:00:15.897Z,1.00
2023-05-05T10:01:15.896Z,1.20
2023-05-05T10:02:15.911Z,1.30
2023-05-05T10:03:15.837Z,1.20
2023-05-05T10:04:15.984Z,1.20
2023-05-05T10:05:15.851Z,1.30
2023-05-05T10:06:15.847Z,1.30
2023-05-05T10:07:15.779Z,1.20
2023-05-05T10:08:15.823Z,1.10
2023-05-05T10:09:15.780Z,1.10
2023-05-05T10:10:15.777Z,1.20
2023-05-05T10:11:15.795Z,1.20
2023-05-05T10:12:15.760Z,1.30
2023-05-05T10:13:15.824Z,1.40
2023-05-05T10:14:15.746Z,1.40
2023-05-05T10:15:15.720Z,1.50
2023-05-05T10:16:15.762Z,1.50
2023-05-05T10:17:15.685Z,1.40
2023-05-05T10:18:15.767Z,1.50
2023-05-05T10:19:15.664Z,1.30
2023-05-05T10:20:15.677Z,1.60
2023-05-05T10:21:15.670Z,1.50
2023-05-05T10:22:15.653Z,1.40
2023-05-05T10:23:15.644Z,1.50
2023-05-05T10:24:15.602Z,1.20
2023-05-05T10:25:15.616Z,1.60
2023-05-05T10:26:15.624Z,1.40
2023-05-05T10:27:15.596Z,1.40
2023-05-05T10:28:15.564Z,1.40
2023-05-05T10:29:15.584Z,1.50
2023-05-05T10:30:15.553Z,1.30
2023-05-05T10:31:25.230Z,1.40
2023-05-05T10:32:40.806Z,1.50
2023-05-05T10:33:30.927Z,1.50
2023-05-05T10:34:15.594Z,1.50
2023-05-05T10:35:15.535Z,1.30
2023-05-05T10:36:15.513Z,1.50
2023-05-05T10:37:15.494Z,1.50
2023-05-05T10:38:15.488Z,1.30
2023-05-05T10:39:15.482Z,1.40
2023-05-05T10:40:15.531Z,1.30
2023-05-05T10:41:15.460Z,1.30
2023-05-05T10:42:15.480Z,1.20
2023-05-05T10:43:15.437Z,1.30
2023-05-05T10:44:15.403Z,1.40
2023-05-05T10:45:15.444Z,1.20
2023-05-05T10:46:15.413Z,1.40
2023-05-05T10:47:15.419Z,1.30
2023-05-05T10:48:15.397Z,1.60
2023-05-05T10:49:15.392Z,1.30
2023-05-05T10:50:15.401Z,1.20
2023-05-05T10:51:23.925Z,1.40
2023-05-05T10:52:15.336Z,1.30
2023-05-05T10:53:15.331Z,1.10
2023-05-05T10:54:15.400Z,1.20
2023-05-05T10:55:15.312Z,1.10
2023-05-05T10:56:15.271Z,1.40
2023-05-05T10:57:15.305Z,1.30
2023-05-05T10:58:15.253Z,1.30
2023-05-05T10:59:15.276Z,1.30
2023-05-05T11:00:15.313Z,1.00
2023-05-05T11:01:15.270Z,1.00
2023-05-05T11:02:15.255Z,1.10
2023-05-05T11:03:15.327Z,1.00
2023-05-05T11:04:15.196Z,1.00
2023-05-05T11:05:15.378Z,1.00
2023-05-05T11:06:15.199Z,0.90
2023-05-05T11:07:15.269Z,0.80
2023-05-05T11:08:15.167Z,0.90
2023-05-05T11:09:15.168Z,0.90
2023-05-05T11:10:15.301Z,0.90
2023-05-05T11:11:15.142Z,0.80
2023-05-05T11:12:15.103Z,0.90
2023-05-05T11:13:15.163Z,0.90
2023-05-05T11:14:15.081Z,1.00
2023-05-05T11:15:15.106Z,0.90
2023-05-05T11:16:15.090Z,1.00
2023-05-05T11:17:15.090Z,1.00
2023-05-05T11:18:15.085Z,0.80
2023-05-05T11:19:15.078Z,1.00
2023-05-05T11:20:15.026Z,1.00
2023-05-05T11:21:15.067Z,1.10
2023-05-05T11:22:15.009Z,1.00
2023-05-05T11:23:16.635Z,0.90
2023-05-05T11:24:15.008Z,1.00
2023-05-05T11:25:14.997Z,0.90
2023-05-05T11:26:14.961Z,1.00
2023-05-05T11:27:14.968Z,0.90
2023-05-05T11:28:14.959Z,1.20
2023-05-05T11:29:15.014Z,0.90
2023-05-05T11:30:14.919Z,0.80
2023-05-05T11:31:14.998Z,0.90
2023-05-05T11:32:14.898Z,0.90
2023-05-05T11:33:14.905Z,0.90
2023-05-05T11:34:14.880Z,0.70
2023-05-05T11:35:14.928Z,0.90
2023-05-05T11:36:14.856Z,0.90
2023-05-05T11:37:14.868Z,1.00
2023-05-05T11:38:14.845Z,0.80
2023-05-05T11:39:14.842Z,1.00
2023-05-05T11:40:14.824Z,0.90
2023-05-05T11:41:14.826Z,0.80
2023-05-05T11:42:14.825Z,0.80
2023-05-05T11:43:14.836Z,0.90
2023-05-05T11:44:14.782Z,0.80
2023-05-05T11:45:14.810Z,0.70
2023-05-05T11:46:14.757Z,1.00
2023-05-05T11:47:14.771Z,0.90
2023-05-05T11:48:14.765Z,0.90
2023-05-05T11:49:14.740Z,0.80
2023-05-05T11:50:14.710Z,0.80
2023-05-05T11:51:14.758Z,0.90
2023-05-05T11:52:14.717Z,0.80
2023-05-05T11:53:14.686Z,0.70
2023-05-05T11:54:14.667Z,0.80
2023-05-05T11:55:14.676Z,0.90
2023-05-05T11:56:14.648Z,0.80
2023-05-05T11:57:14.670Z,0.70
2023-05-05T11:58:14.630Z,0.80
2023-05-05T11:59:14.639Z,0.60
2023-05-05T12:00:14.601Z,0.80
2023-05-05T12:01:14.629Z,0.70
2023-05-05T12:02:14.658Z,0.80
2023-05-05T12:03:14.733Z,0.80
2023-05-05T12:04:14.678Z,0.70
2023-05-05T12:05:14.582Z,0.80
2023-05-05T12:06:14.547Z,0.70
2023-05-05T12:07:14.552Z,0.70
2023-05-05T12:08:14.522Z,0.70
2023-05-05T12:09:14.563Z,0.80
2023-05-05T12:10:14.497Z,0.80
2023-05-05T12:11:14.511Z,0.70
2023-05-05T12:12:14.506Z,0.70
2023-05-05T12:13:14.512Z,0.80
2023-05-05T12:14:14.449Z,0.70
2023-05-05T12:15:14.490Z,0.60
2023-05-05T12:16:14.479Z,0.90
2023-05-05T12:17:14.443Z,0.90
2023-05-05T12:18:14.420Z,0.90
2023-05-05T12:19:14.431Z,0.90
2023-05-05T12:20:14.465Z,0.70
2023-05-05T12:21:14.418Z,0.90
2023-05-05T12:22:14.372Z,0.70
2023-05-05T12:23:14.381Z,0.60
2023-05-05T12:24:14.348Z,0.80
2023-05-05T12:25:14.366Z,0.70
2023-05-05T12:26:14.324Z,0.60
2023-05-05T12:27:14.362Z,0.70
2023-05-05T12:28:14.318Z,0.50
2023-05-05T12:29:14.325Z,0.70
2023-05-05T12:30:14.299Z,0.70
2023-05-05T12:31:14.537Z,0.80
2023-05-05T12:32:14.400Z,0.60
2023-05-05T12:33:14.307Z,0.80
2023-05-05T12:34:14.249Z,0.70
2023-05-05T12:35:14.489Z,0.70
2023-05-05T12:36:14.229Z,0.90
2023-05-05T12:37:14.242Z,0.90
2023-05-05T12:38:14.207Z,0.70
2023-05-05T12:39:14.238Z,0.50
2023-05-05T12:40:14.187Z,0.70
2023-05-05T12:41:14.205Z,0.80
2023-05-05T12:42:14.162Z,0.80
2023-05-05T12:43:14.174Z,0.70
2023-05-05T12:44:14.143Z,0.50
2023-05-05T12:45:14.189Z,0.80
2023-05-05T12:46:14.184Z,0.70
2023-05-05T12:47:14.171Z,0.60
2023-05-05T12:48:14.101Z,0.60
2023-05-05T12:49:14.146Z,0.60
2023-05-05T12:50:14.163Z,0.70
2023-05-05T12:51:14.116Z,0.70
2023-05-05T12:52:14.090Z,0.80
2023-05-05T12:53:14.073Z,0.80
2023-05-05T12:54:14.057Z,0.60
2023-05-05T12:55:14.070Z,0.80
2023-05-05T12:56:14.033Z,1.00
2023-05-05T12:57:14.054Z,0.90
2023-05-05T12:58:13.997Z,0.90
2023-05-05T12:59:14.018Z,0.90
2023-05-05T13:00:13.982Z,0.90
2023-05-05T13:01:14.033Z,0.90
2023-05-05T13:02:13.975Z,0.90
2023-05-05T13:03:14.069Z,0.90
2023-05-05T13:04:14.011Z,0.80
2023-05-05T13:05:13.977Z,0.90
2023-05-05T13:06:13.910Z,0.70
2023-05-05T13:07:13.954Z,0.80
2023-05-05T13:08:13.905Z,0.70
2023-05-05T13:09:13.933Z,0.80
2023-05-05T13:10:13.893Z,0.80
2023-05-05T13:11:13.881Z,0.80
2023-05-05T13:12:13.873Z,0.80
2023-05-05T13:13:13.906Z,0.90
2023-05-05T13:14:13.833Z,0.60
2023-05-05T13:15:13.870Z,0.70
2023-05-05T13:16:13.830Z,0.70
2023-05-05T13:17:13.829Z,0.70
2023-05-05T13:18:13.835Z,0.90